Time;durP1;ratioP1;P1;durP2;ratioP2;P2;SDS_P1;SDS_P2;PMS_P1;PMS_P2;Temp;Humidity;BMP_temperature;BMP_pressure;BME280_temperature;BME280_humidity;BME280_pressure;Samples;Min_cycle;Max_cycle;Signal;HPM_P1;HPM_P2
2022/12/05 00:02:13;;;;;;;5.60;2.58;;;8.70;99.90;;;;;;5014176;28;20045;-74
2022/12/05 00:04:39;;;;;;;5.38;2.40;;;8.60;99.90;;;;;;5018201;28;20133;-74
2022/12/05 00:07:04;;;;;;;5.82;2.75;;;8.50;99.90;;;;;;5012656;28;20467;-75
2022/12/05 00:09:30;;;;;;;4.60;2.15;;;8.50;99.90;;;;;;5001668;28;20052;-74
2022/12/05 00:11:56;;;;;;;6.05;2.45;;;8.60;99.90;;;;;;5018282;28;20069;-75
2022/12/05 00:14:22;;;;;;;5.75;2.15;;;8.70;99.90;;;;;;5018790;28;20053;-76
2022/12/05 00:16:47;;;;;;;7.05;2.20;;;8.70;99.90;;;;;;5036246;28;20061;-75
2022/12/05 00:19:15;;;;;;;7.85;3.10;;;8.70;99.90;;;;;;5024452;28;20045;-74
2022/12/05 00:21:41;;;;;;;;;;;8.90;99.90;;;;;;5022098;28;20452;-75
2022/12/05 00:24:10;;;;;;;7.43;2.90;;;8.90;99.90;;;;;;5018092;28;19921;-75
2022/12/05 00:26:36;;;;;;;6.70;2.92;;;8.80;99.90;;;;;;5006489;28;20048;-76
2022/12/05 00:29:02;;;;;;;7.40;3.17;;;8.60;99.90;;;;;;5028082;28;20496;-76
2022/12/05 00:31:29;;;;;;;6.25;2.80;;;8.50;99.90;;;;;;5023084;28;20139;-75
2022/12/05 00:33:58;;;;;;;7.05;2.88;;;8.50;99.90;;;;;;5016046;28;20042;-75
2022/12/05 00:36:28;;;;;;;6.38;2.88;;;8.40;99.90;;;;;;5017590;28;20040;-75
2022/12/05 00:38:54;;;;;;;7.10;2.70;;;8.40;99.90;;;;;;5020980;28;20037;-76
2022/12/05 00:41:24;;;;;;;7.10;3.55;;;8.40;99.90;;;;;;5012102;28;20481;-76
2022/12/05 00:43:51;;;;;;;5.72;2.70;;;8.30;99.90;;;;;;5025773;28;20037;-75
2022/12/05 00:46:23;;;;;;;6.30;2.50;;;8.40;99.90;;;;;;5023259;28;20037;-76
2022/12/05 00:48:49;;;;;;;6.40;2.72;;;8.60;99.90;;;;;;5021821;28;20037;-76
2022/12/05 00:51:20;;;;;;;5.88;2.85;;;8.60;99.90;;;;;;5019017;28;20118;-76
2022/12/05 00:53:48;;;;;;;8.38;2.22;;;8.60;99.90;;;;;;5022849;28;20030;-76
2022/12/05 00:56:19;;;;;;;5.72;2.38;;;8.60;99.90;;;;;;5023382;28;20083;-75
2022/12/05 00:58:46;;;;;;;6.15;2.63;;;8.60;99.90;;;;;;5017152;28;20030;-76
2022/12/05 01:01:33;;;;;;;7.40;2.65;;;8.50;99.90;;;;;;5020036;28;20477;-76
2022/12/05 01:04:06;;;;;;;6.22;2.95;;;8.50;99.90;;;;;;5032447;28;20145;-76
2022/12/05 01:06:32;;;;;;;6.15;2.38;;;8.60;99.90;;;;;;5019505;28;20088;-76
2022/12/05 01:08:58;;;;;;;5.50;2.53;;;8.60;99.90;;;;;;5015405;28;20119;-76
2022/12/05 01:11:25;;;;;;;6.32;2.88;;;8.40;99.90;;;;;;5023494;28;20034;-76
2022/12/05 01:13:52;;;;;;;;;;;8.50;99.90;;;;;;5018275;28;20183;-76
2022/12/05 01:16:23;;;;;;;5.93;2.67;;;8.60;99.90;;;;;;5017690;28;19960;-76
2022/12/05 01:18:48;;;;;;;6.13;2.80;;;8.70;99.90;;;;;;5024610;28;20032;-77
2022/12/05 01:21:15;;;;;;;6.43;2.75;;;8.60;99.90;;;;;;5018148;28;20133;-77
2022/12/05 01:23:40;;;;;;;5.63;2.85;;;8.50;99.90;;;;;;5004633;28;20037;-76
2022/12/05 01:26:12;;;;;;;6.72;2.78;;;8.50;99.90;;;;;;5028671;28;20124;-76
2022/12/05 01:28:38;;;;;;;7.22;3.78;;;8.60;99.90;;;;;;5021161;28;20384;-76
2022/12/05 01:31:07;;;;;;;6.55;2.85;;;8.50;99.90;;;;;;5024677;28;20026;-75
2022/12/05 01:33:34;;;;;;;7.15;2.97;;;8.50;99.90;;;;;;5029014;28;20033;-76
2022/12/05 01:36:01;;;;;;;7.53;3.20;;;8.40;99.90;;;;;;5007242;28;20137;-76
2022/12/05 01:38:27;;;;;;;6.72;2.60;;;8.50;99.90;;;;;;5020085;28;20034;-76
2022/12/05 01:41:01;;;;;;;6.70;2.72;;;8.40;99.90;;;;;;5024041;28;20037;-76
2022/12/05 01:43:27;;;;;;;7.00;3.03;;;8.40;99.90;;;;;;5021483;28;20095;-75
2022/12/05 01:45:53;;;;;;;6.75;3.10;;;8.30;99.90;;;;;;5025582;28;20030;-75
2022/12/05 01:48:29;;;;;;;9.70;3.53;;;8.20;99.90;;;;;;5021625;28;20080;-75
2022/12/05 01:50:56;;;;;;;5.78;2.55;;;8.10;99.90;;;;;;5038975;28;20118;-76
2022/12/05 01:53:22;;;;;;;6.00;2.55;;;8.00;99.90;;;;;;5020512;28;20037;-76
2022/12/05 01:55:50;;;;;;;6.57;2.60;;;8.10;99.90;;;;;;5024845;28;20038;-75
2022/12/05 01:58:16;;;;;;;5.95;2.60;;;8.10;99.90;;;;;;5025214;28;20072;-76
2022/12/05 02:00:42;;;;;;;7.35;3.05;;;8.00;99.90;;;;;;5021803;28;20129;-76
2022/12/05 02:03:13;;;;;;;5.00;2.20;;;8.00;99.90;;;;;;5022067;28;20041;-76
2022/12/05 02:05:40;;;;;;;6.40;2.60;;;8.10;99.90;;;;;;5027283;28;20124;-74
2022/12/05 02:08:09;;;;;;;6.10;2.55;;;8.20;99.90;;;;;;5023852;28;20599;-75
2022/12/05 02:10:40;;;;;;;5.50;2.50;;;8.10;99.90;;;;;;5019197;28;20088;-75
2022/12/05 02:13:31;;;;;;;4.32;1.75;;;8.10;99.90;;;;;;5027659;28;20037;-75
2022/12/05 02:16:30;;;;;;;4.68;1.83;;;8.10;99.90;;;;;;5024703;28;20029;-75
2022/12/05 02:19:08;;;;;;;3.72;1.20;;;8.20;99.90;;;;;;5036800;28;20029;-76
2022/12/05 02:21:52;;;;;;;4.35;1.45;;;8.30;99.90;;;;;;5019643;28;20469;-75
2022/12/05 02:24:36;;;;;;;2.33;0.80;;;8.30;99.90;;;;;;5024245;28;20038;-75
2022/12/05 02:27:05;;;;;;;2.67;0.80;;;8.50;99.90;;;;;;5025277;28;20487;-74
2022/12/05 02:29:52;;;;;;;1.88;0.50;;;8.70;99.90;;;;;;5027607;28;20044;-76
2022/12/05 02:32:37;;;;;;;2.22;0.70;;;9.00;99.10;;;;;;5021035;28;20501;-75
2022/12/05 02:35:32;;;;;;;2.35;0.90;;;9.00;99.00;;;;;;5021825;28;20534;-76
2022/12/05 02:38:24;;;;;;;7.82;2.65;;;9.10;99.50;;;;;;4977975;28;20431;-75
2022/12/05 02:41:18;;;;;;;2.85;0.93;;;9.00;99.90;;;;;;5024906;28;20057;-76
2022/12/05 02:43:58;;;;;;;3.65;1.30;;;8.80;99.90;;;;;;5020647;28;20045;-76
2022/12/05 02:46:27;;;;;;;3.45;1.00;;;8.60;99.90;;;;;;5022776;28;20026;-76
2022/12/05 02:49:03;;;;;;;3.08;1.20;;;8.50;99.90;;;;;;5026948;28;20484;-75
2022/12/05 02:51:34;;;;;;;3.63;1.30;;;8.40;99.90;;;;;;5021815;28;20079;-76
2022/12/05 02:54:05;;;;;;;2.85;1.08;;;8.30;99.90;;;;;;5026070;28;20049;-76
2022/12/05 02:56:33;;;;;;;2.92;1.08;;;8.30;99.90;;;;;;5019611;28;20120;-76
2022/12/05 02:59:00;;;;;;;2.80;1.13;;;8.50;99.90;;;;;;5021568;28;20057;-76
2022/12/05 03:01:29;;;;;;;3.55;1.23;;;8.60;99.90;;;;;;5021374;28;20049;-76
2022/12/05 03:03:56;;;;;;;3.92;1.13;;;8.50;99.90;;;;;;5021620;28;20026;-75
2022/12/05 03:06:33;;;;;;;3.55;1.40;;;8.50;99.90;;;;;;5020208;28;21671;-75
2022/12/05 03:09:31;;;;;;;3.40;1.20;;;8.70;99.90;;;;;;5019616;28;20092;-75
2022/12/05 03:12:04;;;;;;;;;;;8.70;99.90;;;;;;4998821;28;20040;-75
2022/12/05 03:14:37;;;;;;;4.75;1.40;;;8.60;99.90;;;;;;5028746;28;20082;-76
2022/12/05 03:17:09;;;;;;;3.80;1.73;;;8.70;99.90;;;;;;5036078;28;20370;-76
2022/12/05 03:20:01;;;;;;;4.55;1.65;;;8.60;99.90;;;;;;5020657;28;20057;-75
2022/12/05 03:22:39;;;;;;;4.30;1.40;;;8.60;99.90;;;;;;5036868;28;20488;-76
2022/12/05 03:25:07;;;;;;;4.38;1.70;;;8.60;99.90;;;;;;5019994;28;20496;-76
2022/12/05 03:27:41;;;;;;;3.35;1.20;;;8.70;99.90;;;;;;5019136;28;20473;-74
2022/12/05 03:30:11;;;;;;;4.72;1.48;;;8.70;99.90;;;;;;5022037;28;20117;-76
2022/12/05 03:33:02;;;;;;;2.47;0.70;;;8.60;99.90;;;;;;5026825;28;20106;-77
2022/12/05 03:35:58;;;;;;;2.15;0.63;;;8.80;99.50;;;;;;5033073;28;20042;-74
2022/12/05 03:38:32;;;;;;;4.03;1.40;;;9.10;97.90;;;;;;5008288;28;20045;-75
2022/12/05 03:41:37;;;;;;;3.17;1.00;;;9.10;98.80;;;;;;5023142;28;20037;-76
2022/12/05 03:44:32;;;;;;;3.90;1.20;;;9.10;99.50;;;;;;5022086;28;20080;-76
2022/12/05 03:47:10;;;;;;;3.42;1.05;;;9.00;99.90;;;;;;5020467;28;20042;-76
2022/12/05 03:49:53;;;;;;;3.67;1.38;;;8.90;99.90;;;;;;5020135;28;20596;-76
2022/12/05 03:52:43;;;;;;;4.45;1.80;;;8.80;99.90;;;;;;5037596;28;20029;-76
2022/12/05 03:55:12;;;;;;;4.35;1.48;;;8.70;99.90;;;;;;5017612;28;20033;-76
2022/12/05 03:58:26;;;;;;;4.20;1.45;;;8.80;99.90;;;;;;5018403;28;20485;-76
2022/12/05 04:00:56;;;;;;;5.07;1.67;;;8.70;99.90;;;;;;5028706;28;20045;-75
2022/12/05 04:03:37;;;;;;;4.38;1.83;;;8.60;99.90;;;;;;5019321;28;20080;-76
2022/12/05 04:06:17;;;;;;;3.85;1.65;;;8.60;99.90;;;;;;5013941;28;20046;-75
2022/12/05 04:08:48;;;;;;;4.38;1.55;;;8.50;99.90;;;;;;5033232;28;20037;-75
2022/12/05 04:11:19;;;;;;;4.68;1.90;;;8.50;99.90;;;;;;5009110;28;20141;-76
2022/12/05 04:14:01;;;;;;;3.42;1.40;;;8.50;99.90;;;;;;5023607;28;20049;-76
2022/12/05 04:22:24;;;;;;;4.88;1.95;;;8.50;99.90;;;;;;5015886;28;20095;-76
2022/12/05 04:27:48;;;;;;;4.30;1.88;;;8.40;99.90;;;;;;5018936;28;20043;-76
2022/12/05 04:30:23;;;;;;;5.72;2.17;;;8.50;99.90;;;;;;5017654;28;20057;-76
2022/12/05 04:33:16;;;;;;;5.60;2.80;;;8.40;99.90;;;;;;5010876;28;20046;-75
2022/12/05 04:36:21;;;;;;;5.60;2.42;;;8.40;99.90;;;;;;4992198;28;20116;-76
2022/12/05 04:38:59;;;;;;;6.70;2.40;;;8.50;99.90;;;;;;5008508;28;20120;-75
2022/12/05 04:41:36;;;;;;;5.30;2.30;;;8.40;99.90;;;;;;5008997;28;20153;-75
2022/12/05 04:44:07;;;;;;;5.75;2.40;;;8.40;99.90;;;;;;5018940;28;20053;-76
2022/12/05 04:46:37;;;;;;;6.97;2.13;;;8.30;99.90;;;;;;5017292;28;20062;-74
2022/12/05 04:49:07;;;;;;;6.28;2.05;;;8.30;99.90;;;;;;5019977;28;20531;-75
2022/12/05 04:51:34;;;;;;;4.70;1.80;;;8.20;99.90;;;;;;5024309;28;20030;-75
2022/12/05 04:54:24;;;;;;;4.43;1.65;;;8.10;99.90;;;;;;5023285;28;20038;-76
2022/12/05 04:56:53;;;;;;;5.32;2.08;;;8.00;99.90;;;;;;4969854;28;20049;-75
2022/12/05 04:59:21;;;;;;;6.18;2.20;;;8.00;99.90;;;;;;5033940;28;20137;-75
2022/12/05 05:01:52;;;;;;;;;;;7.90;99.90;;;;;;5020804;28;20479;-75
2022/12/05 05:04:28;;;;;;;5.18;2.15;;;8.00;99.90;;;;;;5022506;28;20532;-75
2022/12/05 05:06:54;;;;;;;6.85;2.83;;;8.10;99.90;;;;;;5021443;28;20033;-76
2022/12/05 05:09:20;;;;;;;5.65;2.30;;;8.10;99.90;;;;;;5017907;28;20084;-76
2022/12/05 05:11:45;;;;;;;6.25;2.22;;;8.00;99.90;;;;;;5016266;28;20041;-76
2022/12/05 05:14:11;;;;;;;5.28;2.40;;;7.90;99.90;;;;;;5018332;28;20033;-76
2022/12/05 05:16:40;;;;;;;5.85;2.95;;;7.90;99.90;;;;;;5021183;28;20424;-76
2022/12/05 05:19:07;;;;;;;6.38;2.65;;;8.00;99.90;;;;;;5016093;28;20176;-76
2022/12/05 05:21:38;;;;;;;6.90;2.85;;;8.10;99.90;;;;;;5018553;28;20091;-76
2022/12/05 05:24:05;;;;;;;4.75;1.95;;;7.90;99.90;;;;;;5018093;28;20060;-76
2022/12/05 05:26:34;;;;;;;6.45;2.72;;;7.90;99.90;;;;;;5016569;28;20030;-76
2022/12/05 05:29:01;;;;;;;5.88;2.72;;;7.80;99.90;;;;;;5021115;28;20481;-76
2022/12/05 05:31:27;;;;;;;6.03;2.40;;;7.70;99.90;;;;;;5017688;28;20056;-76
2022/12/05 05:33:55;;;;;;;6.53;2.72;;;7.80;99.90;;;;;;5019380;28;20699;-76
2022/12/05 05:36:24;;;;;;;6.57;3.10;;;7.70;99.90;;;;;;5020798;28;20033;-75
2022/12/05 05:38:52;;;;;;;6.63;2.92;;;7.70;99.90;;;;;;5021099;28;20029;-76
2022/12/05 05:41:23;;;;;;;6.32;2.80;;;7.70;99.90;;;;;;5018229;28;20034;-76
2022/12/05 05:43:50;;;;;;;6.28;2.75;;;7.70;99.90;;;;;;5025105;28;20037;-76
2022/12/05 05:46:18;;;;;;;6.85;2.80;;;7.80;99.90;;;;;;5024107;28;20092;-77
2022/12/05 05:48:45;;;;;;;7.13;2.45;;;7.80;99.90;;;;;;5020607;28;20051;-76
2022/12/05 05:51:12;;;;;;;5.28;2.20;;;7.70;99.90;;;;;;5020062;28;20034;-76
2022/12/05 05:53:38;;;;;;;;;;;7.70;99.90;;;;;;5016366;28;20029;-76
2022/12/05 05:56:06;;;;;;;6.07;2.67;;;7.60;99.90;;;;;;5013947;28;20427;-75
2022/12/05 05:58:32;;;;;;;6.47;2.55;;;7.70;99.90;;;;;;5005390;28;20033;-77
2022/12/05 06:01:20;;;;;;;5.80;2.28;;;7.60;99.90;;;;;;5005043;28;20029;-76
2022/12/05 06:03:46;;;;;;;5.03;2.60;;;7.70;99.90;;;;;;5017274;28;20419;-75
2022/12/05 06:06:13;;;;;;;6.53;2.50;;;7.70;99.90;;;;;;5022673;28;20026;-76
2022/12/05 06:08:41;;;;;;;4.40;2.13;;;7.80;99.90;;;;;;5008790;28;20809;-77
2022/12/05 06:11:08;;;;;;;5.72;2.53;;;7.80;99.90;;;;;;5033235;28;20022;-76
2022/12/05 06:13:34;;;;;;;5.05;2.03;;;7.90;99.90;;;;;;5023799;28;20026;-75
2022/12/05 06:16:00;;;;;;;4.90;2.08;;;7.90;99.90;;;;;;5021301;28;20383;-75
2022/12/05 06:18:27;;;;;;;9.05;2.55;;;7.90;99.90;;;;;;5019367;28;20048;-76
2022/12/05 06:20:55;;;;;;;5.00;1.90;;;7.80;99.90;;;;;;5025998;28;20503;-76
2022/12/05 06:23:22;;;;;;;4.40;2.00;;;7.80;99.90;;;;;;5023926;28;20037;-76
2022/12/05 06:25:53;;;;;;;6.57;2.40;;;7.80;99.90;;;;;;5022389;28;20037;-75
2022/12/05 06:28:23;;;;;;;5.57;2.50;;;7.80;99.90;;;;;;5023384;28;20041;-76
2022/12/05 06:30:49;;;;;;;5.20;2.22;;;7.70;99.90;;;;;;5018102;28;20033;-75
2022/12/05 06:33:15;;;;;;;5.45;2.40;;;7.70;99.90;;;;;;5017136;28;20091;-75
2022/12/05 06:35:41;;;;;;;4.90;2.00;;;7.70;99.90;;;;;;5023161;28;20041;-76
2022/12/05 06:38:08;;;;;;;5.95;2.13;;;7.70;99.90;;;;;;5024115;28;20653;-76
2022/12/05 06:40:34;;;;;;;5.75;2.30;;;7.80;99.90;;;;;;5024090;28;20088;-75
2022/12/05 06:43:00;;;;;;;5.43;2.05;;;7.90;99.90;;;;;;5026091;28;20061;-76
2022/12/05 06:45:26;;;;;;;5.90;2.10;;;7.90;99.90;;;;;;5024319;28;20034;-76
2022/12/05 06:47:52;;;;;;;6.72;2.63;;;7.90;99.90;;;;;;5027887;28;20055;-77
2022/12/05 06:50:18;;;;;;;7.30;2.70;;;7.80;99.90;;;;;;5024436;28;20038;-76
2022/12/05 06:52:44;;;;;;;5.45;2.58;;;7.70;99.90;;;;;;5028121;28;20034;-77
2022/12/05 06:55:10;;;;;;;7.65;3.40;;;7.60;99.90;;;;;;5023794;28;20046;-76
2022/12/05 06:57:36;;;;;;;7.25;3.22;;;7.60;99.90;;;;;;5022946;28;20036;-76
2022/12/05 07:02:50;;;;;;;8.38;3.35;;;7.50;99.90;;;;;;5024742;28;20385;-76
2022/12/05 07:05:16;;;;;;;7.55;3.00;;;7.50;99.90;;;;;;5026396;28;20033;-76
2022/12/05 07:07:42;;;;;;;8.30;3.28;;;7.50;99.90;;;;;;5022847;28;20451;-76
2022/12/05 07:10:08;;;;;;;7.05;3.03;;;7.50;99.90;;;;;;5027993;28;20136;-75
2022/12/05 07:12:34;;;;;;;6.60;2.80;;;7.60;99.90;;;;;;5025269;28;20070;-76
2022/12/05 07:15:01;;;;;;;7.70;3.47;;;7.50;99.90;;;;;;5023092;28;21107;-76
2022/12/05 07:17:27;;;;;;;6.95;2.72;;;7.50;99.90;;;;;;5024106;28;20037;-76
2022/12/05 07:19:53;;;;;;;6.75;2.28;;;7.60;99.90;;;;;;5020527;28;20030;-76
2022/12/05 07:22:20;;;;;;;9.00;2.72;;;7.70;99.90;;;;;;5023855;28;20638;-76
2022/12/05 07:24:47;;;;;;;6.93;2.83;;;7.70;99.90;;;;;;5028168;28;20037;-76
2022/12/05 07:27:14;;;;;;;5.78;2.13;;;7.70;99.90;;;;;;5025473;28;20148;-75
2022/12/05 07:29:40;;;;;;;5.78;2.38;;;7.70;99.90;;;;;;5022662;28;20040;-76
2022/12/05 07:32:07;;;;;;;6.47;2.55;;;7.80;99.90;;;;;;5022947;28;20122;-75
2022/12/05 07:34:33;;;;;;;5.97;2.63;;;7.90;99.90;;;;;;5019061;28;20485;-75
2022/12/05 07:36:59;;;;;;;5.47;2.30;;;8.10;99.90;;;;;;5021702;28;20120;-76
2022/12/05 07:39:26;;;;;;;5.15;2.58;;;8.10;99.90;;;;;;5020375;28;20428;-75
2022/12/05 07:41:52;;;;;;;5.40;1.60;;;8.30;99.90;;;;;;5007748;28;20049;-76
2022/12/05 07:44:18;;;;;;;5.00;1.60;;;8.40;99.90;;;;;;5019974;28;20481;-76
2022/12/05 07:46:45;;;;;;;5.97;1.63;;;8.50;99.90;;;;;;5017331;28;20102;-76
2022/12/05 07:49:11;;;;;;;5.43;1.58;;;8.60;99.90;;;;;;5016876;28;20034;-76
2022/12/05 07:51:37;;;;;;;4.50;1.60;;;8.70;99.90;;;;;;5026376;28;20351;-76
2022/12/05 07:54:03;;;;;;;4.75;1.83;;;8.80;99.90;;;;;;5021516;28;20041;-76
2022/12/05 07:56:29;;;;;;;4.07;1.75;;;8.90;99.90;;;;;;5022166;28;20372;-77
2022/12/05 07:58:55;;;;;;;7.30;2.08;;;8.90;99.90;;;;;;5013560;28;20122;-75
2022/12/05 08:01:23;;;;;;;4.35;1.60;;;9.00;99.90;;;;;;5011778;28;20061;-76
2022/12/05 08:03:51;;;;;;;5.20;2.30;;;9.10;99.90;;;;;;5011247;28;20044;-75
2022/12/05 08:06:20;;;;;;;4.93;1.85;;;9.10;99.90;;;;;;4975389;28;20088;-74
2022/12/05 08:08:48;;;;;;;5.43;1.90;;;9.20;99.90;;;;;;5006125;28;20612;-76
2022/12/05 08:11:20;;;;;;;5.65;2.10;;;9.60;99.90;;;;;;5006540;28;20042;-77
2022/12/05 08:13:46;;;;;;;6.00;2.72;;;9.60;99.90;;;;;;5006070;28;20416;-76
2022/12/05 08:16:15;;;;;;;6.40;2.17;;;9.80;99.90;;;;;;5009976;28;20025;-76
2022/12/05 08:18:42;;;;;;;4.70;2.20;;;11.50;99.90;;;;;;5009515;28;20112;-76
2022/12/05 08:21:10;;;;;;;6.72;2.20;;;12.90;98.50;;;;;;5016478;28;20032;-77
2022/12/05 08:23:37;;;;;;;7.40;3.03;;;13.90;96.90;;;;;;5013812;28;20181;-77
2022/12/05 08:26:06;;;;;;;5.78;2.20;;;14.70;95.70;;;;;;5004550;28;20485;-77
2022/12/05 08:28:33;;;;;;;6.70;3.03;;;15.30;94.70;;;;;;5029335;28;20459;-77
2022/12/05 08:31:13;;;;;;;5.43;2.40;;;15.70;94.00;;;;;;5010392;28;20778;-77
2022/12/05 08:33:40;;;;;;;6.07;2.28;;;16.10;93.40;;;;;;5009727;28;20037;-78
2022/12/05 08:36:08;;;;;;;5.20;2.70;;;16.20;93.10;;;;;;5007591;28;20130;-78
2022/12/05 08:38:35;;;;;;;5.82;2.70;;;16.10;93.10;;;;;;5010781;28;20041;-78
2022/12/05 08:41:08;;;;;;;5.03;2.40;;;16.50;92.80;;;;;;4994495;28;21375;-78
2022/12/05 08:43:34;;;;;;;5.30;2.20;;;16.20;92.80;;;;;;5011091;28;20065;-77
2022/12/05 08:46:00;;;;;;;4.90;2.50;;;15.20;93.20;;;;;;5009298;28;20034;-77
2022/12/05 08:48:27;;;;;;;6.55;2.30;;;14.50;94.10;;;;;;5003442;28;20539;-76
2022/12/05 08:50:54;;;;;;;5.80;2.78;;;13.90;94.90;;;;;;5012510;28;20409;-77
2022/12/05 08:53:20;;;;;;;5.20;3.00;;;13.50;95.50;;;;;;5020487;28;20033;-76
2022/12/05 08:55:46;;;;;;;6.70;2.72;;;13.20;96.10;;;;;;5021044;28;20047;-76
2022/12/05 08:58:12;;;;;;;5.82;2.70;;;13.10;96.50;;;;;;5018432;28;20096;-76
2022/12/05 09:00:38;;;;;;;8.93;2.97;;;13.00;96.90;;;;;;5017907;28;20061;-77
2022/12/05 09:03:05;;;;;;;6.63;2.55;;;12.90;97.20;;;;;;5019621;28;20037;-77
2022/12/05 09:05:31;;;;;;;5.68;2.70;;;12.90;97.40;;;;;;5016681;28;20504;-76
2022/12/05 09:07:58;;;;;;;7.03;2.92;;;12.90;97.70;;;;;;5014423;28;20054;-77
2022/12/05 09:10:25;;;;;;;5.55;2.80;;;12.80;97.90;;;;;;5014630;28;20085;-76
2022/12/05 09:12:50;;;;;;;6.00;2.78;;;12.80;98.20;;;;;;5013933;28;20185;-75
2022/12/05 09:15:17;;;;;;;5.53;2.78;;;12.80;98.50;;;;;;5007878;28;20129;-76
2022/12/05 09:17:43;;;;;;;4.85;2.50;;;12.90;98.40;;;;;;5016141;28;20116;-77
2022/12/05 09:20:12;;;;;;;6.28;2.58;;;13.10;98.20;;;;;;5013855;28;20060;-75
2022/12/05 09:22:39;;;;;;;6.38;2.75;;;13.50;97.90;;;;;;5018419;28;20782;-76
2022/12/05 09:25:06;;;;;;;5.82;3.00;;;14.00;97.90;;;;;;5003430;28;20188;-78
2022/12/05 09:27:32;;;;;;;5.88;2.78;;;14.10;97.40;;;;;;5014082;28;20038;-76
2022/12/05 09:29:58;;;;;;;7.20;3.05;;;14.30;97.20;;;;;;5017458;28;20043;-77
2022/12/05 09:32:23;;;;;;;6.45;3.00;;;14.50;97.20;;;;;;5014076;28;20446;-77
2022/12/05 09:34:49;;;;;;;6.80;2.80;;;14.70;97.00;;;;;;5012336;28;20049;-74
2022/12/05 09:37:17;;;;;;;8.45;3.83;;;14.90;96.90;;;;;;5015473;28;20042;-75
2022/12/05 09:39:46;;;;;;;7.82;2.92;;;15.10;96.70;;;;;;5014145;28;20044;-74
2022/12/05 09:42:18;;;;;;;5.50;2.90;;;15.10;96.50;;;;;;5033574;28;20038;-74
2022/12/05 09:45:08;;;;;;;6.82;3.38;;;15.20;96.80;;;;;;5017301;28;20088;-75
2022/12/05 09:47:45;;;;;;;5.78;3.03;;;15.40;96.60;;;;;;5019942;28;20029;-74
2022/12/05 09:50:39;;;;;;;5.50;3.47;;;15.40;96.50;;;;;;5019704;28;20025;-74
2022/12/05 09:53:26;;;;;;;6.72;3.10;;;15.70;96.10;;;;;;5015565;28;20044;-74
2022/12/05 09:56:04;;;;;;;6.95;3.40;;;15.70;96.00;;;;;;5019042;28;20049;-73
2022/12/05 09:58:47;;;;;;;5.75;3.10;;;15.80;95.80;;;;;;5037089;28;20033;-73
2022/12/05 10:01:24;;;;;;;6.60;4.40;;;16.00;95.40;;;;;;5018597;28;20400;-73
2022/12/05 10:04:09;;;;;;;6.60;3.40;;;16.20;95.20;;;;;;5022215;28;20044;-74
2022/12/05 10:06:59;;;;;;;7.30;3.38;;;16.60;94.70;;;;;;5031563;28;20077;-74
2022/12/05 10:10:07;;;;;;;5.72;2.90;;;16.70;94.60;;;;;;5019140;28;20029;-74
2022/12/05 10:13:04;;;;;;;7.75;3.58;;;16.70;94.90;;;;;;5014541;28;20030;-74
2022/12/05 10:15:36;;;;;;;5.57;3.47;;;17.20;94.70;;;;;;5006186;28;20129;-74
2022/12/05 10:18:13;;;;;;;7.88;3.97;;;17.10;94.50;;;;;;5020618;28;20045;-73
2022/12/05 10:21:11;;;;;;;7.20;3.42;;;17.20;94.60;;;;;;5014732;28;20108;-75
2022/12/05 10:24:02;;;;;;;6.90;3.45;;;17.20;94.80;;;;;;5010130;28;20120;-74
2022/12/05 10:26:45;;;;;;;6.60;3.60;;;17.50;94.70;;;;;;5014784;28;20037;-76
2022/12/05 10:29:28;;;;;;;8.57;4.20;;;17.90;94.90;;;;;;5019628;28;20045;-74
2022/12/05 10:32:05;;;;;;;8.40;4.05;;;17.90;94.90;;;;;;5017669;28;20111;-73
2022/12/05 10:34:39;;;;;;;7.45;3.58;;;18.20;94.80;;;;;;5020334;28;20116;-75
2022/12/05 10:37:14;;;;;;;6.60;3.80;;;18.50;94.90;;;;;;5018943;28;20560;-74
2022/12/05 10:39:40;;;;;;;6.28;3.88;;;18.80;95.10;;;;;;5030746;28;20036;-77
2022/12/05 10:42:12;;;;;;;7.22;3.65;;;19.00;94.70;;;;;;5019625;28;20046;-77
2022/12/05 10:44:39;;;;;;;7.95;3.88;;;19.00;94.80;;;;;;5020047;28;20038;-76
2022/12/05 10:47:05;;;;;;;;;;;19.30;94.90;;;;;;5010702;28;20034;-77
2022/12/05 10:49:32;;;;;;;6.57;3.55;;;19.60;94.80;;;;;;5014649;28;19939;-78
2022/12/05 10:51:59;;;;;;;7.25;5.03;;;19.70;94.80;;;;;;5019647;28;20405;-76
2022/12/05 10:54:30;;;;;;;6.68;3.42;;;19.80;94.40;;;;;;5006236;28;20057;-76
2022/12/05 10:56:56;;;;;;;8.07;4.35;;;19.80;94.50;;;;;;5005915;28;20050;-77
2022/12/05 10:59:24;;;;;;;9.27;4.05;;;19.70;94.30;;;;;;5013129;28;20049;-77
2022/12/05 11:01:53;;;;;;;6.97;3.97;;;19.90;94.20;;;;;;5013159;28;20176;-76
2022/12/05 11:04:22;;;;;;;9.40;3.97;;;20.20;94.00;;;;;;5017812;28;20037;-76
2022/12/05 11:07:06;;;;;;;7.60;4.13;;;20.10;94.00;;;;;;5026237;28;20034;-76
2022/12/05 11:09:35;;;;;;;7.60;4.07;;;20.20;94.00;;;;;;5035649;28;20029;-77
2022/12/05 11:12:22;;;;;;;6.28;3.80;;;19.90;94.00;;;;;;5015548;28;20219;-76
2022/12/05 11:15:08;;;;;;;7.75;4.72;;;20.20;94.00;;;;;;5017635;28;20042;-75
2022/12/05 11:17:37;;;;;;;8.50;4.53;;;20.70;93.70;;;;;;5016249;28;20037;-76
2022/12/05 11:20:17;;;;;;;8.57;3.75;;;21.00;93.20;;;;;;5019571;28;20093;-78
2022/12/05 11:22:52;;;;;;;6.72;4.18;;;21.00;93.50;;;;;;5017742;28;20084;-76
2022/12/05 11:25:28;;;;;;;7.03;4.68;;;21.20;92.90;;;;;;5022153;28;20714;-76
2022/12/05 11:28:19;;;;;;;7.25;4.68;;;21.00;93.20;;;;;;5030289;28;20103;-76
2022/12/05 11:31:01;;;;;;;6.97;4.25;;;21.30;92.50;;;;;;5004434;28;20073;-77
2022/12/05 11:33:30;;;;;;;6.60;4.07;;;21.90;92.10;;;;;;5016833;28;20034;-76
2022/12/05 11:36:20;;;;;;;7.43;4.07;;;22.20;91.70;;;;;;5030431;28;20049;-75
2022/12/05 11:38:47;;;;;;;8.10;5.38;;;22.10;91.60;;;;;;5012864;28;20042;-75
2022/12/05 11:41:45;;;;;;;8.07;4.65;;;22.20;91.40;;;;;;5009892;28;20499;-73
2022/12/05 11:44:22;;;;;;;9.52;4.85;;;22.00;91.40;;;;;;5019162;28;20045;-73
2022/12/05 11:47:19;;;;;;;8.60;5.03;;;22.20;91.40;;;;;;5014201;28;20041;-74
2022/12/05 11:50:02;;;;;;;8.27;4.40;;;22.70;91.20;;;;;;4989436;28;20341;-73
2022/12/05 11:52:52;;;;;;;8.23;4.75;;;23.20;90.70;;;;;;5006551;28;20041;-72
2022/12/05 11:55:28;;;;;;;9.70;5.00;;;23.70;90.00;;;;;;5019571;28;20532;-73
2022/12/05 11:58:04;;;;;;;10.10;4.70;;;23.80;89.10;;;;;;5011351;28;20030;-74
2022/12/05 12:00:59;;;;;;;10.63;5.30;;;24.30;88.90;;;;;;5004503;28;20038;-74
2022/12/05 12:04:07;;;;;;;9.63;6.00;;;24.60;87.40;;;;;;4988677;28;20041;-74
2022/12/05 12:06:37;;;;;;;9.23;5.38;;;24.80;87.10;;;;;;5012396;28;20041;-74
2022/12/05 12:09:23;;;;;;;8.90;5.18;;;24.20;88.00;;;;;;5014924;28;20449;-74
2022/12/05 12:12:01;;;;;;;9.18;5.90;;;23.50;88.70;;;;;;5010323;28;20029;-74
2022/12/05 12:14:36;;;;;;;9.13;5.28;;;23.70;89.40;;;;;;5010018;28;20172;-73
2022/12/05 12:17:38;;;;;;;10.20;6.50;;;23.80;89.10;;;;;;5021921;28;20048;-75
2022/12/05 12:20:12;;;;;;;10.13;7.25;;;24.20;88.00;;;;;;4995118;28;20029;-74
2022/12/05 12:22:55;;;;;;;10.00;6.05;;;23.60;87.90;;;;;;5010847;28;20152;-73
2022/12/05 12:25:38;;;;;;;9.82;5.72;;;23.60;88.80;;;;;;5015665;28;20373;-74
2022/12/05 12:28:13;;;;;;;10.30;6.25;;;24.50;87.40;;;;;;5018771;28;20077;-74
2022/12/05 12:31:03;;;;;;;9.57;6.18;;;24.90;87.20;;;;;;5014030;28;20046;-74
2022/12/05 12:33:36;;;;;;;10.02;6.28;;;25.00;86.60;;;;;;5011632;28;20034;-75
2022/12/05 12:36:38;;;;;;;9.23;5.88;;;24.80;86.80;;;;;;5011064;28;20128;-74
2022/12/05 12:39:31;;;;;;;10.35;5.75;;;25.00;86.80;;;;;;5001318;28;20037;-74
2022/12/05 12:42:16;;;;;;;10.63;6.05;;;25.00;86.70;;;;;;5018698;28;20045;-75
2022/12/05 12:45:04;;;;;;;;;;;25.00;86.80;;;;;;5013279;28;20060;-73
2022/12/05 12:47:29;;;;;;;8.73;5.10;;;24.80;87.20;;;;;;5015080;28;19913;-75
2022/12/05 12:50:02;;;;;;;10.50;5.88;;;25.30;87.20;;;;;;5017017;28;20107;-77
2022/12/05 12:52:58;;;;;;;8.70;5.43;;;25.70;86.20;;;;;;5018881;28;20030;-75
2022/12/05 12:55:37;;;;;;;10.40;6.53;;;26.00;85.50;;;;;;5008623;28;20629;-73
2022/12/05 12:58:03;;;;;;;9.82;6.13;;;24.60;85.50;;;;;;5033131;28;20497;-73
2022/12/05 13:00:52;;;;;;;10.23;6.43;;;23.00;87.70;;;;;;5012059;28;20046;-73
2022/12/05 13:03:38;;;;;;;9.18;5.57;;;23.20;89.10;;;;;;5000438;28;20049;-74
2022/12/05 13:06:15;;;;;;;11.07;5.63;;;24.80;86.70;;;;;;5010942;28;20041;-73
2022/12/05 13:08:53;;;;;;;12.18;5.90;;;25.80;85.50;;;;;;4996911;28;20967;-71
2022/12/05 13:11:21;;;;;;;8.52;5.15;;;26.10;86.90;;;;;;5017911;28;20489;-70
2022/12/05 13:13:53;;;;;;;9.20;5.13;;;25.80;87.50;;;;;;5020370;28;20177;-70
2022/12/05 13:16:41;;;;;;;7.45;4.38;;;25.90;88.00;;;;;;5017782;28;20053;-71
2022/12/05 13:19:36;;;;;;;6.78;3.92;;;26.10;88.10;;;;;;5016419;28;20472;-70
2022/12/05 13:22:04;;;;;;;7.03;4.15;;;25.70;88.30;;;;;;5028730;28;20068;-70
2022/12/05 13:24:32;;;;;;;6.38;4.18;;;25.30;89.10;;;;;;5014745;28;20044;-71
2022/12/05 13:27:04;;;;;;;5.82;3.60;;;25.20;89.30;;;;;;5016992;28;20026;-71
2022/12/05 13:29:37;;;;;;;6.78;3.92;;;25.30;89.30;;;;;;5014991;28;20034;-70
2022/12/05 13:32:05;;;;;;;6.60;4.07;;;25.40;89.20;;;;;;5011700;28;20055;-70
2022/12/05 13:34:34;;;;;;;5.68;4.10;;;25.30;89.20;;;;;;5012684;28;20080;-70
2022/12/05 13:42:41;;;;;;;6.43;4.18;;;25.80;88.30;;;;;;5020789;28;20452;-70
2022/12/05 13:45:14;;;;;;;6.03;3.47;;;25.80;87.80;;;;;;5016372;28;20136;-70